Time;durP1;ratioP1;P1;durP2;ratioP2;P2;SDS_P1;SDS_P2;PMS_P1;PMS_P2;Temp;Humidity;BMP_temperature;BMP_pressure;BME280_temperature;BME280_humidity;BME280_pressure;Samples;Min_cycle;Max_cycle;Signal;HPM_P1;HPM_P2
2022/02/15 08:14:17;;;;;;;121.22;57.93;;;;;;;2.21;80.01;98683.84;4669411;74;23460;-85
2022/02/15 08:20:19;;;;;;;128.85;60.08;;;;;;;2.56;78.80;98677.05;4632352;75;21014;-85
2022/02/15 08:26:20;;;;;;;125.35;60.17;;;;;;;2.84;78.52;98672.13;4498476;75;32881;-85
2022/02/15 08:32:21;;;;;;;115.37;56.68;;;;;;;3.35;78.37;98671.39;4340442;80;21073;-85
2022/02/15 08:38:22;;;;;;;111.45;55.58;;;;;;;4.02;78.30;98679.80;4357806;80;21035;-85
2022/02/15 08:44:41;;;;;;;202.87;106.20;;;;;;;4.98;77.68;98681.50;4351343;80;21025;-85
2022/02/15 08:50:42;;;;;;;105.63;56.73;;;;;;;5.82;76.54;98668.82;4356172;80;21017;-85
2022/02/15 08:57:01;;;;;;;96.25;50.40;;;;;;;6.51;75.78;98674.88;4363022;80;21598;-86
2022/02/15 09:03:07;;;;;;;85.85;45.35;;;;;;;7.58;75.64;98671.98;4242449;82;20984;-86
2022/02/15 09:09:26;;;;;;;86.03;44.03;;;;;;;8.59;74.53;98675.55;4245425;82;21699;-86
2022/02/15 09:15:27;;;;;;;75.95;40.17;;;;;;;9.30;72.87;98679.34;4243041;82;21047;-87
2022/02/15 09:21:28;;;;;;;76.92;42.43;;;;;;;9.83;73.26;98685.92;4243540;82;21070;-88
2022/02/15 09:27:30;;;;;;;90.20;44.93;;;;;;;10.31;72.14;98689.67;4217416;83;21091;-88
2022/02/15 09:33:31;;;;;;;74.03;39.70;;;;;;;11.05;71.21;98686.79;4215515;82;21001;-88
2022/02/15 09:39:32;;;;;;;72.00;40.15;;;;;;;11.72;70.34;98687.58;4246056;82;21501;-88
2022/02/15 09:45:35;;;;;;;77.53;38.08;;;;;;;12.38;69.53;98687.63;4219305;83;21098;-88
2022/02/15 09:51:38;;;;;;;55.98;30.85;;;;;;;12.88;68.72;98688.30;4221201;83;21005;-89
2022/02/15 09:57:41;;;;;;;58.65;30.25;;;;;;;13.10;68.48;98686.28;4221737;83;21045;-88
2022/02/15 10:03:59;;;;;;;53.20;28.90;;;;;;;13.20;66.76;98684.09;4240572;82;21108;-89
2022/02/15 10:10:02;;;;;;;50.25;29.00;;;;;;;13.87;66.37;98687.25;4212995;82;21101;-89
2022/02/15 10:16:05;;;;;;;47.60;29.20;;;;;;;14.54;65.16;98678.45;4209295;82;21136;-90
2022/02/15 10:22:07;;;;;;;41.18;25.97;;;;;;;14.43;64.41;98673.05;4199727;82;21068;-90
2022/02/15 10:28:19;;;;;;;37.35;23.20;;;;;;;14.31;63.61;98668.64;4210020;82;21102;-90
2022/02/15 10:34:21;;;;;;;38.65;21.70;;;;;;;14.84;62.85;98663.38;4202293;82;21007;-90
2022/02/15 10:40:22;;;;;;;29.65;18.92;;;;;;;14.81;61.34;98667.75;4234279;82;21065;-90
2022/02/15 10:46:29;;;;;;;29.87;19.87;;;;;;;14.74;60.86;98672.53;4202554;82;21047;-90
2022/02/15 10:52:31;;;;;;;;;;;;;;;14.68;60.47;98676.34;4233026;81;21100;-89
2022/02/15 10:58:34;;;;;;;24.57;16.02;;;;;;;14.85;56.78;98673.98;4218702;81;62140;-90
2022/02/15 11:04:37;;;;;;;21.17;13.53;;;;;;;14.96;58.84;98671.89;4217590;82;21065;-90
2022/02/15 11:11:07;;;;;;;23.60;15.80;;;;;;;14.87;56.87;98673.58;4238547;81;21009;-90
2022/02/15 11:17:15;;;;;;;23.35;16.00;;;;;;;14.63;57.03;98671.27;4307090;81;21009;-91
2022/02/15 11:23:21;;;;;;;24.63;15.05;;;;;;;14.40;56.81;98677.20;4295084;81;21068;-90
2022/02/15 11:29:26;;;;;;;29.85;17.65;;;;;;;14.59;56.22;98673.29;4296797;81;21077;-90
2022/02/15 11:35:29;;;;;;;27.95;16.57;;;;;;;14.69;55.59;98675.14;4298467;81;20973;-90
2022/02/15 11:41:42;;;;;;;26.48;15.63;;;;;;;14.42;54.50;98677.59;4306332;81;21750;-91
2022/02/15 11:47:46;;;;;;;29.23;16.90;;;;;;;14.17;54.08;98677.17;4271359;81;21055;-91
2022/02/15 11:53:55;;;;;;;30.88;16.50;;;;;;;13.87;53.71;98677.03;4315185;79;235462;-90
2022/02/15 11:59:58;;;;;;;27.67;14.60;;;;;;;13.67;53.16;98683.45;4383336;79;21127;-90
2022/02/15 12:06:01;;;;;;;25.30;13.85;;;;;;;13.54;53.22;98685.09;4392815;78;21040;-90
2022/02/15 12:12:04;;;;;;;20.37;12.43;;;;;;;13.40;52.70;98693.42;4382463;79;21026;-92
2022/02/15 12:18:08;;;;;;;20.52;11.83;;;;;;;13.06;52.05;98690.41;4346313;79;21061;-90
2022/02/15 12:24:09;;;;;;;21.82;11.80;;;;;;;12.64;52.15;98691.88;4350989;79;21041;-91
2022/02/15 12:30:15;;;;;;;23.75;11.88;;;;;;;12.45;51.28;98694.45;4267142;81;21058;-91
2022/02/15 12:36:17;;;;;;;25.75;13.28;;;;;;;12.10;50.92;98692.33;4271983;80;21618;-91
2022/02/15 12:42:19;;;;;;;23.62;13.45;;;;;;;11.78;51.05;98693.67;4283957;79;22334;-90
2022/02/15 12:48:21;;;;;;;22.98;13.60;;;;;;;11.70;50.90;98698.17;4251828;80;21066;-91
2022/02/15 12:54:32;;;;;;;24.47;13.10;;;;;;;11.59;50.90;98695.36;4336749;79;20998;-91
2022/02/15 13:00:36;;;;;;;24.37;13.55;;;;;;;11.47;50.90;98694.94;4337526;80;21558;-91
2022/02/15 13:06:39;;;;;;;27.10;14.83;;;;;;;11.45;51.29;98691.82;4308667;79;21038;-91
2022/02/15 13:12:41;;;;;;;27.80;14.78;;;;;;;11.46;51.19;98689.27;4350897;80;21541;-91
2022/02/15 13:18:49;;;;;;;25.92;14.80;;;;;;;11.33;50.94;98683.36;4401778;78;21040;-90
2022/02/15 13:25:00;;;;;;;29.82;16.15;;;;;;;11.27;51.01;98683.54;4394777;78;20982;-90
2022/02/15 13:31:01;;;;;;;29.92;17.42;;;;;;;11.23;51.24;98689.58;4401701;78;21024;-91
2022/02/15 13:37:10;;;;;;;30.12;16.80;;;;;;;11.20;51.12;98688.98;4395356;78;21040;-91
2022/02/15 13:43:25;;;;;;;36.15;17.57;;;;;;;11.04;50.83;98692.05;4387976;80;21047;-90
2022/02/15 13:49:27;;;;;;;38.58;18.55;;;;;;;10.80;51.34;98687.84;4392979;80;20997;-90
2022/02/15 13:55:28;;;;;;;36.63;20.08;;;;;;;10.62;51.37;98682.83;4411943;78;21073;-90
2022/02/15 14:01:33;;;;;;;39.73;19.77;;;;;;;10.47;51.67;98694.30;4414117;78;21100;-90
2022/02/15 14:07:35;;;;;;;32.83;19.20;;;;;;;10.37;51.92;98696.94;4405575;78;21646;-90
2022/02/15 14:13:37;;;;;;;36.03;18.92;;;;;;;10.30;52.15;98694.16;4336970;78;21002;-90
2022/02/15 14:19:38;;;;;;;37.30;20.17;;;;;;;10.28;52.58;98685.54;4273525;81;21132;-89
2022/02/15 14:25:40;;;;;;;39.20;19.23;;;;;;;10.32;52.84;98683.63;4294109;80;21027;-89
2022/02/15 14:31:41;;;;;;;31.27;17.32;;;;;;;10.34;52.93;98688.13;4270204;81;21062;-90
2022/02/15 14:37:45;;;;;;;32.05;16.40;;;;;;;10.29;53.15;98694.73;4279167;80;21078;-90
2022/02/15 14:43:46;;;;;;;29.63;16.12;;;;;;;10.19;52.95;98710.50;4212448;81;106296;-90
2022/02/15 14:49:48;;;;;;;31.07;14.85;;;;;;;10.10;53.38;98711.98;4139450;84;21129;-91
2022/02/15 14:55:51;;;;;;;32.15;15.45;;;;;;;9.98;53.46;98710.85;4148823;84;21022;-89
2022/02/15 15:01:53;;;;;;;39.98;16.77;;;;;;;9.83;53.79;98715.42;4176148;83;21145;-89
2022/02/15 15:07:54;;;;;;;29.63;17.27;;;;;;;9.68;53.96;98706.86;4145639;84;21059;-89
2022/02/15 15:13:56;;;;;;;32.35;17.35;;;;;;;9.52;54.20;98714.53;4164711;83;21625;-90
2022/02/15 15:19:58;;;;;;;33.65;18.50;;;;;;;9.32;54.37;98727.56;4139996;84;21061;-89
2022/02/15 15:25:59;;;;;;;35.78;17.73;;;;;;;9.21;54.70;98719.82;4120287;84;21006;-89
2022/02/15 15:32:02;;;;;;;41.77;18.67;;;;;;;9.05;54.77;98716.50;4123017;84;21677;-90
2022/02/15 15:38:03;;;;;;;38.02;20.40;;;;;;;8.76;55.02;98726.05;4147475;85;21065;-89
2022/02/15 15:44:07;;;;;;;41.37;20.05;;;;;;;8.61;55.57;98726.45;4141497;85;21076;-89
2022/02/15 15:50:09;;;;;;;52.05;22.85;;;;;;;8.42;55.92;98736.66;4139285;85;21569;-89
2022/02/15 15:56:11;;;;;;;46.28;21.45;;;;;;;8.21;56.42;98744.46;4142528;85;21035;-90
2022/02/15 16:02:13;;;;;;;50.43;23.85;;;;;;;8.00;56.57;98746.28;4144192;84;21041;-88
2022/02/15 16:08:15;;;;;;;61.60;24.63;;;;;;;7.84;57.12;98749.69;4143948;84;20968;-89
2022/02/15 16:14:16;;;;;;;50.52;22.60;;;;;;;7.61;57.57;98746.93;4121768;84;21136;-89
2022/02/15 16:20:18;;;;;;;44.83;21.27;;;;;;;7.42;58.03;98750.27;4144050;84;21063;-90
2022/02/15 16:26:20;;;;;;;46.70;21.00;;;;;;;7.19;58.08;98748.83;4159781;83;21079;-89
2022/02/15 16:32:22;;;;;;;43.90;22.20;;;;;;;6.99;58.59;98751.89;4152478;84;21078;-89
2022/02/15 16:38:23;;;;;;;108.85;50.75;;;;;;;6.72;59.07;98749.56;4160489;84;21019;-89
2022/02/15 16:44:26;;;;;;;119.77;55.85;;;;;;;6.53;59.36;98763.70;4157315;84;21138;-89
2022/02/15 16:50:28;;;;;;;85.25;40.73;;;;;;;6.37;59.90;98763.73;4148609;83;21047;-89
2022/02/15 16:56:30;;;;;;;73.75;34.75;;;;;;;6.14;60.28;98761.39;4163922;84;21510;-89
2022/02/15 17:02:31;;;;;;;60.25;30.05;;;;;;;5.98;60.68;98778.29;4155834;84;21058;-89
2022/02/15 17:08:32;;;;;;;66.47;32.45;;;;;;;5.78;60.87;98773.27;4147270;83;21067;-88
2022/02/15 17:14:34;;;;;;;70.30;33.53;;;;;;;5.57;61.34;98773.28;4136897;84;21674;-89
2022/02/15 17:20:36;;;;;;;63.52;29.57;;;;;;;5.43;61.90;98779.13;4154920;84;21034;-89
2022/02/15 17:26:38;;;;;;;57.88;27.10;;;;;;;5.30;62.33;98785.72;4149155;84;21788;-89
2022/02/15 17:32:39;;;;;;;57.60;28.60;;;;;;;5.08;62.47;98798.45;4147410;84;21054;-89
2022/02/15 17:38:42;;;;;;;69.42;31.85;;;;;;;4.81;63.01;98820.32;4159629;84;20964;-88
2022/02/15 17:44:43;;;;;;;70.85;31.90;;;;;;;4.61;63.20;98823.16;4154336;83;21126;-89
2022/02/15 17:50:44;;;;;;;73.40;32.50;;;;;;;4.40;63.77;98827.33;4160692;84;21611;-89
2022/02/15 17:56:47;;;;;;;77.75;34.53;;;;;;;4.25;63.90;98832.08;4166713;84;21059;-88
2022/02/15 18:02:49;;;;;;;86.00;38.63;;;;;;;4.10;64.05;98836.00;4148722;84;21082;-88
2022/02/15 18:08:50;;;;;;;87.40;41.05;;;;;;;3.95;64.67;98837.98;4148318;84;21163;-90
2022/02/15 18:14:52;;;;;;;93.80;43.33;;;;;;;3.62;64.94;98840.70;4097090;84;21051;-90
2022/02/15 18:20:54;;;;;;;93.85;40.63;;;;;;;3.50;65.73;98846.64;4070577;86;21054;-90
2022/02/15 18:26:56;;;;;;;78.65;37.58;;;;;;;3.38;65.53;98840.63;4071421;85;21086;-89
2022/02/15 18:32:57;;;;;;;90.17;44.05;;;;;;;3.23;65.95;98831.19;4063526;86;21378;-89
2022/02/15 18:39:00;;;;;;;88.17;40.25;;;;;;;2.99;66.45;98842.44;4071754;85;21421;-89
2022/02/15 18:45:05;;;;;;;95.03;42.60;;;;;;;2.85;67.24;98844.59;4065923;86;21301;-90
2022/02/15 18:51:06;;;;;;;169.40;68.45;;;;;;;2.83;67.53;98844.13;4079173;85;22427;-89
2022/02/15 18:57:08;;;;;;;162.72;65.32;;;;;;;2.59;68.03;98844.73;4080214;85;21040;-89
2022/02/15 19:03:10;;;;;;;116.15;51.73;;;;;;;2.49;68.30;98838.34;4076174;85;21024;-89
2022/02/15 19:09:11;;;;;;;161.75;69.40;;;;;;;2.39;68.58;98840.08;4082568;84;21094;-88
2022/02/15 19:15:12;;;;;;;110.68;51.05;;;;;;;2.27;68.72;98839.95;4101493;85;21987;-89
2022/02/15 19:21:14;;;;;;;109.70;51.13;;;;;;;2.18;69.18;98837.05;4148540;85;21098;-89
2022/02/15 19:27:15;;;;;;;99.90;50.83;;;;;;;2.08;69.81;98840.12;4139737;85;21587;-89
2022/02/15 19:33:17;;;;;;;118.97;50.63;;;;;;;2.10;70.36;98839.25;4148179;85;21128;-89
2022/02/15 19:39:27;;;;;;;85.03;40.83;;;;;;;2.07;70.60;98855.52;4137198;85;21549;-90
2022/02/15 19:45:28;;;;;;;109.95;48.50;;;;;;;2.16;71.04;98864.95;4149091;84;21012;-89
2022/02/15 19:51:31;;;;;;;95.40;44.33;;;;;;;2.10;71.09;98865.67;4138681;85;21029;-89
2022/02/15 19:57:34;;;;;;;204.30;75.45;;;;;;;2.14;71.51;98881.48;4144277;85;21084;-89
2022/02/15 20:03:36;;;;;;;217.32;87.85;;;;;;;2.13;71.60;98884.50;4136367;84;21079;-88
2022/02/15 20:09:37;;;;;;;215.68;82.17;;;;;;;1.99;71.44;98877.16;4145295;84;21547;-88
2022/02/15 20:15:40;;;;;;;183.85;77.30;;;;;;;1.71;71.24;98878.64;4177768;83;21059;-89
2022/02/15 20:21:42;;;;;;;195.77;81.42;;;;;;;1.48;72.15;98895.00;4193427;83;21947;-89
2022/02/15 20:27:45;;;;;;;241.15;97.37;;;;;;;1.33;71.90;98890.06;4192771;83;22016;-90
2022/02/15 20:33:47;;;;;;;233.85;93.87;;;;;;;1.24;72.17;98877.13;4196387;83;21057;-90
2022/02/15 20:39:50;;;;;;;226.62;89.90;;;;;;;1.08;72.46;98871.95;4195722;83;21033;-88
2022/02/15 20:45:53;;;;;;;199.30;79.00;;;;;;;0.94;72.85;98875.92;4235566;83;21012;-89
2022/02/15 20:51:55;;;;;;;208.85;85.75;;;;;;;0.87;73.48;98883.66;4189055;83;21063;-89
2022/02/15 20:57:57;;;;;;;211.90;89.07;;;;;;;0.75;73.25;98891.00;4220675;83;21008;-89
2022/02/15 21:03:58;;;;;;;216.30;91.85;;;;;;;0.64;73.84;98882.99;4216926;83;21019;-89
2022/02/15 21:09:59;;;;;;;209.18;89.22;;;;;;;0.46;73.56;98885.91;4227923;83;20981;-89
2022/02/15 21:16:01;;;;;;;231.28;96.40;;;;;;;0.31;74.21;98884.45;4190205;83;21102;-90
2022/02/15 21:22:03;;;;;;;217.40;93.12;;;;;;;0.08;74.30;98862.70;4124443;84;21129;-89
2022/02/15 21:28:06;;;;;;;216.42;91.97;;;;;;;0.10;74.84;98883.39;4119303;84;21046;-89
2022/02/15 21:34:07;;;;;;;179.23;79.03;;;;;;;0.04;75.08;98885.97;4140198;84;21048;-89
2022/02/15 21:40:10;;;;;;;185.37;83.47;;;;;;;-0.19;75.39;98866.36;4139786;83;22234;-91
2022/02/15 21:46:12;;;;;;;206.00;92.10;;;;;;;-0.04;75.22;98892.09;4130693;84;21121;-88
2022/02/15 21:52:13;;;;;;;212.08;94.67;;;;;;;0.05;75.85;98877.36;4147941;84;21062;-89
2022/02/15 21:58:15;;;;;;;215.72;96.40;;;;;;;0.05;75.85;98877.36;4132368;84;20998;-88
2022/02/15 22:04:16;;;;;;;181.97;80.10;;;;;;;0.08;76.62;98870.78;4139600;84;21134;-89
2022/02/15 22:10:17;;;;;;;221.30;101.22;;;;;;;0.10;76.58;98876.66;4140295;83;21612;-89
2022/02/15 22:16:19;;;;;;;209.05;87.57;;;;;;;0.03;76.94;98866.91;4201670;83;21056;-89
2022/02/15 22:22:24;;;;;;;226.62;99.45;;;;;;;0.08;76.23;98867.31;4224953;83;21074;-89
2022/02/15 22:28:24;;;;;;;217.13;98.12;;;;;;;0.09;77.37;98880.47;4229402;81;21046;-89
2022/02/15 22:34:25;;;;;;;215.82;98.82;;;;;;;0.09;77.37;98880.47;4236693;83;21670;-88
2022/02/15 22:40:29;;;;;;;204.90;88.97;;;;;;;0.03;77.26;98884.94;4246516;83;21035;-88
2022/02/15 22:46:31;;;;;;;208.82;94.37;;;;;;;-0.13;77.20;98877.27;4226718;83;21727;-88
2022/02/15 22:52:35;;;;;;;204.07;93.05;;;;;;;-0.12;78.01;98876.70;4218552;83;21014;-88
2022/02/15 22:58:37;;;;;;;268.95;117.67;;;;;;;-0.13;78.24;98869.20;4230658;83;21052;-89
2022/02/15 23:04:40;;;;;;;179.15;82.88;;;;;;;-0.09;77.71;98865.31;4232512;83;21072;-88
2022/02/15 23:23:21;;;;;;;259.43;114.77;;;;;;;0.10;79.21;98864.55;4181914;83;21078;-90
2022/02/15 23:29:22;;;;;;;317.75;138.85;;;;;;;0.06;79.30;98862.78;4199268;83;21547;-88
2022/02/15 23:35:24;;;;;;;297.67;128.62;;;;;;;0.05;79.18;98854.48;4201285;83;21564;-89
2022/02/15 23:41:25;;;;;;;235.75;101.15;;;;;;;0.00;79.21;98857.53;4204236;83;21051;-89
2022/02/15 23:47:26;;;;;;;241.73;104.78;;;;;;;-0.19;79.89;98830.62;4204826;83;21628;-88
2022/02/15 23:53:28;;;;;;;176.87;77.80;;;;;;;-0.19;79.89;98830.62;4232279;83;21042;-92
2022/02/15 23:59:35;;;;;;;214.90;92.70;;;;;;;-0.16;80.08;98856.33;4224844;83;21013;-89
